sim
Sign-in with your pilot id or email,
or register
Callsign
Passwort

Schedule Details

Flight Number: DLH2103
Departure: Hannover Langenhagen Airport (EDDV) at 20:10
Arrival: Munich Airport (EDDM) at 21:20
Route: Lufthansa Passenger Schedule. Enter filed route here before submitting Pirep.

Weather Information
Getting current METAR information for EDDV 190550Z 09005KT CAVOK 06/02 Q1023 NOSIG
Getting current METAR information for EDDM 190550Z VRB01KT CAVOK 05/04 Q1020 NOSIG

Schedule Frequency

Route Map